• Join FlightAware (Why Join?)
  • Login
  • US Flag 
10:32PM EDT


 

Airport Tracker/Info


-or-


 

Live Flight TrackerFlight Track Log ✈ UAL4596 ✈ 09-Apr-2013 ✈ KEWR - KSTL

Flight Track Log - Related Links

Times and Time Zones

All times are in EDT time to prevent confusion due to time zone crossing. See the UAL4596 flight status page for this flight to view local times or setup timezone preferences in your user account.

Time Position Orientation Groundspeed Altitude Reporting Facility
EDT Latitude Longitude Course Direction KTS MPH feet Rate Location/Type
03:28PM 40.6667 -74.1833 294° West 167 192 1,000  Level New York TRACON
03:29PM 40.6167 -74.2167 207° Southwest 210 242 2,600 1,800 Climbing New York TRACON
03:30PM 40.6333 -74.2833 288° West 236 272 4,700 2,280 Climbing New York TRACON
03:31PM 40.7474 -74.6709 277° West  Level FlightAware Approximate
03:32PM 40.7579 -74.8018 276° West  Level FlightAware Approximate
03:32PM 40.6672 -74.4400 286° West 239 275 9,400  Level New York Center
03:33PM 40.7716 -74.9316 294° West  Level FlightAware Approximate
03:33PM 40.6889 -74.5450 285° West 257 296 10,500  Level New York Center
03:34PM 40.7086 -74.6419 285° West 299 344 11,500 1,500 Climbing New York Center
03:35PM 40.7336 -74.7639 285° West 322 371 13,600 1,980 Climbing New York Center
03:36PM 40.7531 -74.8636 284° West 317 365 15,500 1,980 Climbing New York Center
03:37PM 40.7761 -74.9828 284° West 311 358 17,600 1,860 Climbing New York Center
03:38PM 40.7936 -75.0744 284° West 300 345 19,300 1,860 Climbing New York Center
03:39PM 40.7958 -75.1814 272° West 300 345 21,300 1,920 Climbing New York Center
03:40PM 40.7772 -75.2925 258° West 300 345 23,200 1,680 Climbing New York Center
03:41PM 40.7586 -75.3956 257° West 300 345 24,700 1,200 Climbing New York Center
03:42PM 40.7231 -75.5000 246° West 300 345 25,700 1,080 Climbing New York Center
03:43PM 40.6833 -75.6094 244° Southwest 314 361 26,900 1,440 Climbing New York Center
03:44PM 40.6436 -75.7133 243° Southwest 325 374 28,600 1,620 Climbing New York Center
03:45PM 40.6036 -75.8197 244° Southwest 325 374 30,200 1,500 Climbing New York Center
03:46PM 40.5597 -75.9231 241° Southwest 325 374 31,700 900 Climbing New York Center
03:47PM 40.5217 -76.0267 244° Southwest 325 374 32,000 120 Climbing New York Center
03:48PM 40.4789 -76.1461 245° Southwest 339 390 32,000  Level New York Center
03:49PM 40.4292 -76.2733 243° Southwest 369 425 32,000  Level New York Center
03:50PM 40.3792 -76.4056 244° Southwest 391 450 32,000  Level New York Center
03:51PM 40.3250 -76.5344 241° Southwest 407 468 32,000  Level New York Center
03:52PM 40.2747 -76.6636 243° Southwest 407 468 32,000  Level New York Center
03:53PM 40.2247 -76.7872 242° Southwest 396 456 32,000  Level New York Center
03:54PM 40.1933 -76.9150 252° West 384 442 32,000  Level New York Center
03:55PM 40.1675 -77.0486 256° West 379 436 32,000  Level New York Center
03:56PM 40.1378 -77.1764 253° West 379 436 32,000 480 Level New York Center
03:57PM 40.1081 -77.4014 260° West 369 425 33,400 840 Climbing Cleveland Center
03:58PM 40.1075 -77.5292 270° West 364 419 34,300 900 Climbing Cleveland Center
03:59PM 40.1067 -77.6567 270° West 364 419 35,300 840 Climbing Cleveland Center
04:00PM 40.1039 -77.7900 268° West 364 419 36,000 300 Climbing Cleveland Center
04:01PM 40.1028 -77.9175 269° West 364 419 36,000  Level Cleveland Center
04:02PM 40.0997 -78.0561 268° West 370 426 36,000  Level Cleveland Center
04:03PM 40.0964 -78.1919 268° West 370 426 36,000  Level Cleveland Center
04:04PM 40.0928 -78.3278 268° West 370 426 36,000  Level Cleveland Center
04:05PM 40.0892 -78.4608 268° West 370 426 36,000  Level Cleveland Center
04:06PM 40.0875 -78.5967 269° West 370 426 36,000  Level Cleveland Center
04:07PM 40.0856 -78.7297 269° West 370 426 36,000  Level Cleveland Center
04:08PM 40.0814 -78.8683 268° West 375 432 36,000  Level Cleveland Center
04:09PM 40.0772 -79.0231 268° West 386 444 36,000  Level Cleveland Center
04:10PM 40.0750 -79.1586 269° West 386 444 36,000  Level Cleveland Center
04:11PM 40.0703 -79.2972 267° West 386 444 36,000  Level Cleveland Center
04:12PM 40.0697 -79.4328 270° West 386 444 36,000  Level Cleveland Center
04:13PM 40.0647 -79.5686 267° West 386 444 36,000  Level Cleveland Center
04:14PM 40.0597 -79.7069 267° West 386 444 36,000  Level Cleveland Center
04:15PM 40.0564 -79.8400 268° West 386 444 36,000  Level Cleveland Center
04:16PM 40.0511 -79.9783 267° West 381 438 36,000  Level Cleveland Center
04:17PM 40.0475 -80.1139 268° West 381 438 36,000  Level Cleveland Center
04:18PM 40.0436 -80.2522 268° West 386 444 36,000  Level Cleveland Center
04:19PM 40.0356 -80.3633 265° West 386 444 36,000  Level Cleveland Center
04:20PM 40.0317 -80.5125 268° West 386 444 36,000  Level Cleveland Center
04:21PM 40.0256 -80.6508 267° West 386 444 36,000  Level Cleveland Center
04:22PM 40.0211 -80.7892 268° West 386 444 36,000  Level Cleveland Center
04:23PM 40.0186 -80.9275 269° West 386 444 36,000  Level Cleveland Center
04:24PM 40.0161 -81.0628 269° West 386 444 36,000  Level Cleveland Center
04:26PM 40.0100 -81.2531 268° West 380 437 36,000  Level Indianapolis Center
04:27PM 40.0081 -81.3931 269° West 381 438 36,000  Level Indianapolis Center
04:28PM 40.0050 -81.5336 268° West 384 442 36,000  Level Indianapolis Center
04:29PM 40.0028 -81.6744 269° West 385 443 36,000  Level Indianapolis Center
04:30PM 39.9978 -81.8319 268° West 383 441 36,000  Level Indianapolis Center
04:31PM 39.9956 -81.9711 269° West 381 438 36,000 -60 Level Indianapolis Center
04:32PM 39.9917 -82.1122 268° West 385 443 35,900  Descending Indianapolis Center
04:33PM 39.9889 -82.2519 269° West 383 441 36,000  Climbing Indianapolis Center
04:34PM 39.9853 -82.3928 268° West 387 445 36,000  Level Indianapolis Center
04:35PM 39.9822 -82.5328 268° West 385 443 36,000  Level Indianapolis Center
04:36PM 39.9772 -82.6725 267° West 383 441 36,000  Level Indianapolis Center
04:37PM 39.9731 -82.8122 268° West 383 441 36,000  Level Indianapolis Center
04:38PM 39.9683 -82.9744 268° West 382 440 36,000  Level Indianapolis Center
04:39PM 39.9647 -83.1136 268° West 382 440 36,000  Level Indianapolis Center
04:40PM 39.9617 -83.2533 268° West 384 442 36,000  Level Indianapolis Center
04:41PM 39.9575 -83.3911 268° West 381 438 36,000  Level Indianapolis Center
04:42PM 39.9519 -83.5278 267° West 383 441 36,000  Level Indianapolis Center
04:43PM 39.9467 -83.6894 268° West 383 441 36,000  Level Indianapolis Center
04:44PM 39.9408 -83.8250 267° West 376 433 36,000  Level Indianapolis Center
04:45PM 39.9358 -83.9628 267° West 379 436 36,000  Level Indianapolis Center
04:46PM 39.9294 -84.1006 267° West 378 435 36,000  Level Indianapolis Center
04:47PM 39.9244 -84.2378 267° West 378 435 36,000  Level Indianapolis Center
04:48PM 39.9181 -84.3767 267° West 381 438 36,000  Level Indianapolis Center
04:49PM 39.9114 -84.5386 267° West 381 438 36,000  Level Indianapolis Center
04:50PM 39.9039 -84.6781 266° West 383 441 36,000  Level Indianapolis Center
04:51PM 39.8969 -84.8158 266° West 380 437 36,000  Level Indianapolis Center
04:52PM 39.8903 -84.9547 266° West 380 437 36,000  Level Indianapolis Center
04:53PM 39.8839 -85.0925 267° West 379 436 36,000  Level Indianapolis Center
04:55PM 39.8775 -85.2308 267° West 380 437 36,000  Level Indianapolis Center
04:56PM 39.8703 -85.3697 266° West 381 438 36,000  Level Indianapolis Center
04:57PM 39.8614 -85.5322 266° West 383 441 36,000  Level Indianapolis Center
04:58PM 39.8422 -85.6703 260° West 384 442 36,000  Level Indianapolis Center
04:59PM 39.8164 -85.8067 256° West 384 442 36,000  Level Indianapolis Center
05:00PM 39.7933 -85.9408 257° West 385 443 36,000  Level Indianapolis Center
05:01PM 39.7681 -86.0767 256° West 386 444 36,000  Level Indianapolis Center
05:02PM 39.7431 -86.2119 257° West 385 443 36,000  Level Indianapolis Center
05:03PM 39.7183 -86.3489 257° West 387 445 36,000  Level Indianapolis Center
05:04PM 39.6883 -86.5122 257° West 387 445 36,000  Level Indianapolis Center
05:05PM 39.6631 -86.6489 257° West 388 447 36,000  Level Indianapolis Center
05:06PM 39.6375 -86.7842 256° West 387 445 36,000 -540 Level Indianapolis Center
05:07PM 39.6117 -86.9200 256° West 388 447 35,000 -1,020 Descending Indianapolis Center
05:08PM 39.5853 -87.0572 256° West 392 451 34,000 -1,020 Descending Indianapolis Center
05:09PM 39.5589 -87.1967 256° West 398 458 32,900 -1,260 Descending Indianapolis Center
05:10PM 39.5258 -87.3650 256° West 402 463 31,500 -1,440 Descending Indianapolis Center
05:11PM 39.4981 -87.5081 256° West 407 468 30,000 -1,440 Descending Indianapolis Center
05:12PM 39.4689 -87.6531 255° West 415 478 28,600 -1,020 Descending Indianapolis Center
05:13PM 39.4408 -87.7981 256° West 415 478 28,000 -300 Descending Indianapolis Center
05:14PM 39.4125 -87.9389 255° West 411 473 28,000  Level Indianapolis Center
05:15PM 39.3847 -88.0733 255° West 399 459 28,000  Level Indianapolis Center
05:16PM 39.3492 -88.2075 251° West 394 453 28,000  Level Indianapolis Center
05:17PM 39.3058 -88.3736 251° West 400 460 28,000  Level Indianapolis Center
05:18PM 39.2700 -88.5097 251° West 402 463 28,000 -600 Level Indianapolis Center
05:19PM 39.2339 -88.6481 251° West 404 465 26,800 -1,380 Descending Indianapolis Center
05:20PM 39.1958 -88.7833 250° West 402 463 25,200 -1,560 Descending Indianapolis Center
05:21PM 39.1622 -88.9114 251° West 390 449 23,600 -1,500 Descending Indianapolis Center
05:22PM 39.1275 -89.0400 251° West 383 441 22,100 -1,680 Descending Indianapolis Center
05:23PM 39.0864 -89.1906 251° West 377 434 20,200 -1,740 Descending Indianapolis Center
05:24PM 39.0817 -89.1642 103° East 357 411 19,800 -1,440 Descending FAA TRACON SMA TRACON (SMA)
05:24PM 39.0711 -89.2119 254° West 362 417 19,300 -1,560 Descending FAA TRACON SMA TRACON (SMA)
05:24PM 39.0617 -89.2494 252° West 361 415 18,800 -1,680 Descending FAA TRACON SMA TRACON (SMA)
05:25PM 39.0508 -89.2967 254° West 357 411 18,200 -1,800 Descending FAA TRACON SMA TRACON (SMA)
05:25PM 39.0428 -89.3339 254° West 352 405 17,600 -1,740 Descending FAA TRACON SMA TRACON (SMA)
05:25PM 39.0347 -89.3700 254° West 348 400 17,100 -1,680 Descending FAA TRACON SMA TRACON (SMA)
05:26PM 39.0225 -89.4147 251° West 343 395 16,500 -1,620 Descending FAA TRACON SMA TRACON (SMA)
05:26PM 39.0144 -89.4503 254° West 340 391 16,000 -1,440 Descending FAA TRACON SMA TRACON (SMA)
05:26PM 39.0061 -89.4856 253° West 337 388 15,600 -1,500 Descending FAA TRACON SMA TRACON (SMA)
05:27PM 38.9961 -89.5294 254° West 333 383 15,000 -1,080 Descending FAA TRACON SMA TRACON (SMA)
05:27PM 38.9858 -89.5628 248° West 327 376 14,900 -180 Descending FAA TRACON SMA TRACON (SMA)
05:27PM 38.9756 -89.5958 248° West 325 374 14,900  Level FAA TRACON SMA TRACON (SMA)
05:28PM 38.9617 -89.6367 246° West 324 373 14,900 -300 Level FAA TRACON SMA TRACON (SMA)
05:28PM 38.9517 -89.6692 248° West 321 369 14,700 -900 Descending FAA TRACON SMA TRACON (SMA)
05:28PM 38.9414 -89.7022 248° West 322 371 14,300 -1,500 Descending FAA TRACON SMA TRACON (SMA)
05:29PM 38.9281 -89.7431 247° West 322 371 13,700 -1,680 Descending FAA TRACON SMA TRACON (SMA)
05:29PM 38.9178 -89.7758 248° West 323 372 13,200 -1,380 Descending FAA TRACON SMA TRACON (SMA)
05:29PM 38.9072 -89.8083 247° West 322 371 12,800 -1,380 Descending FAA TRACON SMA TRACON (SMA)
05:30PM 38.8964 -89.8406 247° West 321 369 12,300 -1,800 Descending FAA TRACON SMA TRACON (SMA)
05:30PM 38.8839 -89.8806 248° West 315 362 11,600 -1,980 Descending FAA TRACON SMA TRACON (SMA)
05:30PM 38.8739 -89.9114 247° West 306 352 11,000 -1,800 Descending FAA TRACON SMA TRACON (SMA)
05:31PM 38.8644 -89.9408 248° West 293 337 10,400 -1,680 Descending FAA TRACON SMA TRACON (SMA)
05:31PM 38.8531 -89.9764 248° West 280 322 9,900 -1,380 Descending FAA TRACON SMA TRACON (SMA)
05:31PM 38.8444 -90.0025 247° West 265 305 9,500 -1,380 Descending FAA TRACON SMA TRACON (SMA)
05:32PM 38.8367 -90.0283 249° West 254 292 9,000 -1,800 Descending FAA TRACON SMA TRACON (SMA)
05:32PM 38.8264 -90.0594 247° West 246 283 8,300 -1,500 Descending FAA TRACON SMA TRACON (SMA)
05:32PM 38.8189 -90.0839 249° West 241 277 8,000 -600 Descending FAA TRACON SMA TRACON (SMA)
05:33PM 38.8106 -90.1075 246° West 238 274 7,900 -180 Descending FAA TRACON SMA TRACON (SMA)
05:33PM 38.8017 -90.1386 250° West 240 276 7,900 120 Level FAA TRACON SMA TRACON (SMA)
05:33PM 38.8053 -90.1658 280° West 256 295 8,000  Climbing FAA TRACON SMA TRACON (SMA)
05:34PM 38.8186 -90.1983 298° West 268 308 7,900 -900 Descending FAA TRACON SMA TRACON (SMA)
05:34PM 38.8283 -90.2244 296° West 266 306 7,400 -1,680 Descending FAA TRACON SMA TRACON (SMA)
05:34PM 38.8378 -90.2497 296° West 257 296 6,800 -2,100 Descending FAA TRACON SMA TRACON (SMA)
05:35PM 38.8486 -90.2800 295° West 244 281 6,000 -2,100 Descending FAA TRACON SMA TRACON (SMA)
05:35PM 38.8567 -90.3031 294° West 235 270 5,400 -1,800 Descending FAA TRACON SMA TRACON (SMA)
05:35PM 38.8642 -90.3258 293° West 226 260 4,800 -2,100 Descending FAA TRACON SMA TRACON (SMA)
05:36PM 38.8689 -90.3547 282° West 226 260 4,000 -1,980 Descending FAA TRACON SMA TRACON (SMA)
05:36PM 38.8608 -90.3758 244° Southwest 220 253 3,500 -1,500 Descending FAA TRACON SMA TRACON (SMA)